Time;durP1;ratioP1;P1;durP2;ratioP2;P2;SDS_P1;SDS_P2;PMS_P1;PMS_P2;Temp;Humidity;BMP_temperature;BMP_pressure;BME280_temperature;BME280_humidity;BME280_pressure;Samples;Min_cycle;Max_cycle;Signal;HPM_P1;HPM_P2
2022/06/18 00:01:39;;;;;;;2.17;1.38;;;20.30;99.90;;;;;;5061183;28;20391;-78
2022/06/18 00:04:17;;;;;;;2.15;1.65;;;20.30;99.90;;;;;;5077972;28;20051;-78
2022/06/18 00:06:43;;;;;;;2.53;1.55;;;20.30;99.90;;;;;;5078212;28;20511;-78
2022/06/18 00:09:11;;;;;;;3.60;1.63;;;20.20;99.90;;;;;;5078148;28;20043;-77
2022/06/18 00:14:21;;;;;;;2.13;1.73;;;20.30;99.90;;;;;;5077369;28;20048;-77
2022/06/18 00:16:47;;;;;;;1.98;1.40;;;20.30;99.90;;;;;;5044196;28;20476;-77
2022/06/18 00:19:13;;;;;;;2.63;1.50;;;20.30;99.90;;;;;;5077623;28;20399;-77
2022/06/18 00:21:38;;;;;;;2.95;1.70;;;20.30;99.90;;;;;;5077708;28;20028;-77
2022/06/18 00:24:17;;;;;;;2.30;1.63;;;20.20;99.90;;;;;;5060783;28;20092;-78
2022/06/18 00:26:43;;;;;;;3.50;1.55;;;20.20;99.90;;;;;;5060623;28;20055;-78
2022/06/18 00:29:17;;;;;;;2.92;1.67;;;20.20;99.90;;;;;;5077103;28;20047;-78
2022/06/18 00:31:43;;;;;;;2.13;1.35;;;20.20;99.90;;;;;;5060431;28;20047;-78
2022/06/18 00:34:09;;;;;;;2.55;1.60;;;20.10;99.90;;;;;;5077300;28;20054;-78
2022/06/18 00:36:40;;;;;;;3.05;1.63;;;20.10;99.90;;;;;;5077173;28;20115;-78
2022/06/18 00:39:09;;;;;;;1.98;1.33;;;20.10;99.90;;;;;;5077192;28;20035;-77
2022/06/18 00:41:36;;;;;;;2.60;1.52;;;20.10;99.90;;;;;;5061323;28;20066;-77
2022/06/18 00:44:07;;;;;;;3.80;1.75;;;20.10;99.90;;;;;;5077054;28;20048;-78
2022/06/18 00:46:42;;;;;;;2.40;1.70;;;20.10;99.90;;;;;;5060287;28;20047;-78
2022/06/18 00:49:15;;;;;;;2.00;1.58;;;20.00;99.90;;;;;;5076820;28;20119;-78
2022/06/18 00:51:49;;;;;;;2.78;1.67;;;20.00;99.90;;;;;;5057179;28;20113;-78
2022/06/18 00:54:21;;;;;;;2.53;1.58;;;20.00;99.90;;;;;;5056925;28;20040;-78
2022/06/18 00:57:01;;;;;;;3.13;1.67;;;20.00;99.90;;;;;;5056935;28;20377;-77
2022/06/18 00:59:34;;;;;;;2.40;1.65;;;20.00;99.90;;;;;;5056735;28;20036;-77
2022/06/18 01:02:01;;;;;;;3.60;1.70;;;20.00;99.90;;;;;;5073209;28;20098;-77
2022/06/18 01:04:35;;;;;;;3.80;2.15;;;20.00;99.90;;;;;;5056864;28;20541;-77
2022/06/18 01:07:18;;;;;;;3.00;1.88;;;19.90;99.90;;;;;;5056278;28;20040;-77
2022/06/18 01:09:47;;;;;;;4.05;2.28;;;19.90;99.90;;;;;;5073038;28;20048;-78
2022/06/18 01:12:13;;;;;;;2.38;1.60;;;19.90;99.90;;;;;;5056342;28;20044;-78
2022/06/18 01:14:40;;;;;;;2.70;1.92;;;19.90;99.90;;;;;;5072778;28;20464;-77
2022/06/18 01:17:06;;;;;;;3.63;1.55;;;19.80;99.90;;;;;;5072825;28;20098;-77
2022/06/18 01:19:36;;;;;;;2.08;1.75;;;19.80;99.90;;;;;;5073125;28;20037;-77
2022/06/18 01:22:26;;;;;;;4.47;1.67;;;19.80;99.90;;;;;;5056527;28;20044;-77
2022/06/18 01:24:52;;;;;;;3.67;2.10;;;19.80;99.90;;;;;;5073017;28;20040;-77
2022/06/18 01:27:18;;;;;;;2.35;1.85;;;19.80;99.90;;;;;;5056300;28;20060;-77
2022/06/18 01:29:44;;;;;;;2.92;2.08;;;19.70;99.90;;;;;;5073009;28;20048;-77
2022/06/18 01:32:13;;;;;;;2.67;1.90;;;19.70;99.90;;;;;;5039452;28;20411;-77
2022/06/18 01:34:39;;;;;;;4.40;2.47;;;19.70;99.90;;;;;;5072778;28;20037;-77
2022/06/18 01:37:06;;;;;;;4.60;2.30;;;19.60;99.90;;;;;;5072672;28;20040;-78
2022/06/18 01:39:35;;;;;;;3.25;2.00;;;19.60;99.90;;;;;;5072531;28;20044;-77
2022/06/18 01:42:10;;;;;;;5.95;2.63;;;19.60;99.90;;;;;;5055685;28;20036;-77
2022/06/18 01:45:03;;;;;;;3.65;2.08;;;19.50;99.90;;;;;;5072192;28;20043;-77
2022/06/18 01:47:34;;;;;;;2.95;2.35;;;19.50;99.90;;;;;;5072460;28;20043;-77
2022/06/18 01:50:12;;;;;;;2.15;1.95;;;19.50;99.90;;;;;;5072252;28;20071;-77
2022/06/18 01:52:43;;;;;;;3.53;2.17;;;19.50;99.90;;;;;;5072242;28;20127;-77
2022/06/18 01:55:15;;;;;;;3.35;2.40;;;19.50;99.90;;;;;;5055405;28;20145;-77
2022/06/18 01:57:47;;;;;;;4.53;2.40;;;19.50;99.90;;;;;;5072085;28;20036;-78
2022/06/18 02:00:20;;;;;;;3.78;2.33;;;19.50;99.90;;;;;;5072405;28;20052;-77
2022/06/18 02:02:46;;;;;;;3.88;2.47;;;19.50;99.90;;;;;;5055637;28;20489;-73
2022/06/18 02:05:14;;;;;;;3.10;2.30;;;19.40;99.90;;;;;;5072214;28;20047;-73
2022/06/18 02:07:43;;;;;;;2.65;1.95;;;19.40;99.90;;;;;;5071984;28;20037;-73
2022/06/18 02:10:13;;;;;;;3.80;2.38;;;19.40;99.90;;;;;;5055578;28;20080;-73
2022/06/18 02:12:40;;;;;;;2.90;2.05;;;19.30;99.90;;;;;;5055153;28;20042;-73
2022/06/18 02:15:15;;;;;;;4.45;2.47;;;19.40;99.90;;;;;;5038616;28;20048;-73
2022/06/18 02:17:41;;;;;;;6.38;2.17;;;19.30;99.90;;;;;;5071821;28;20043;-73
2022/06/18 02:20:12;;;;;;;3.33;2.15;;;19.30;99.90;;;;;;5055602;28;20049;-73
2022/06/18 02:22:44;;;;;;;3.20;2.33;;;19.30;99.90;;;;;;5071793;28;20059;-73
2022/06/18 02:25:11;;;;;;;4.00;2.50;;;19.20;99.90;;;;;;5072043;28;20076;-73
2022/06/18 02:27:39;;;;;;;3.25;2.25;;;19.20;99.90;;;;;;5071684;28;20041;-72
2022/06/18 02:30:12;;;;;;;3.72;2.70;;;19.20;99.90;;;;;;5071721;28;20045;-73
2022/06/18 02:32:54;;;;;;;3.08;2.75;;;19.20;99.90;;;;;;5071625;28;20412;-73
2022/06/18 02:35:19;;;;;;;3.30;2.38;;;19.20;99.90;;;;;;5055133;28;20043;-73
2022/06/18 02:37:45;;;;;;;7.00;3.10;;;19.20;99.90;;;;;;5071956;28;20041;-72
2022/06/18 02:40:21;;;;;;;3.65;2.13;;;19.10;99.90;;;;;;5071598;28;20123;-73
2022/06/18 02:42:49;;;;;;;4.47;3.17;;;19.10;99.90;;;;;;5071709;28;20086;-74
2022/06/18 02:45:17;;;;;;;3.72;2.58;;;19.10;99.90;;;;;;5071812;28;20036;-73
2022/06/18 02:47:43;;;;;;;4.95;2.83;;;19.00;99.90;;;;;;5071554;28;20040;-73
2022/06/18 02:50:14;;;;;;;5.78;3.05;;;19.00;99.90;;;;;;5069179;28;20052;-73
2022/06/18 02:52:43;;;;;;;4.80;2.80;;;19.00;99.90;;;;;;5074980;28;20652;-73
2022/06/18 02:55:31;;;;;;;3.70;2.97;;;19.00;99.90;;;;;;5075418;28;20052;-73
2022/06/18 02:58:11;;;;;;;5.53;2.88;;;19.00;99.90;;;;;;5076000;28;20036;-73
2022/06/18 03:00:38;;;;;;;5.82;3.53;;;19.00;99.90;;;;;;5075500;28;20037;-73
2022/06/18 03:03:10;;;;;;;4.90;2.85;;;18.90;99.90;;;;;;5059096;28;20063;-73
2022/06/18 03:05:37;;;;;;;4.63;2.92;;;18.90;99.90;;;;;;5075750;28;20567;-71
2022/06/18 03:08:03;;;;;;;5.97;3.65;;;18.90;99.90;;;;;;5058660;28;20033;-73
2022/06/18 03:13:13;;;;;;;5.32;3.10;;;18.90;99.90;;;;;;5060919;28;20404;-73
2022/06/18 03:15:39;;;;;;;5.45;2.88;;;18.90;99.90;;;;;;5075240;28;20037;-73
2022/06/18 03:18:06;;;;;;;4.32;3.17;;;18.90;99.90;;;;;;5058841;28;20044;-73
2022/06/18 03:21:15;;;;;;;6.75;3.30;;;18.80;99.90;;;;;;5075535;28;20415;-73
2022/06/18 03:23:42;;;;;;;5.50;3.30;;;18.80;99.90;;;;;;5075207;28;20036;-72
2022/06/18 03:26:08;;;;;;;5.10;3.17;;;18.80;99.90;;;;;;5074975;28;20041;-73
2022/06/18 03:28:34;;;;;;;4.75;3.03;;;18.80;99.90;;;;;;5058283;28;20408;-74
2022/06/18 03:31:00;;;;;;;7.03;3.30;;;18.80;99.90;;;;;;5058328;28;20048;-72
2022/06/18 03:33:25;;;;;;;4.55;3.40;;;18.80;99.90;;;;;;5074746;28;20044;-73
2022/06/18 03:35:52;;;;;;;6.03;3.80;;;18.70;99.90;;;;;;5074962;28;20043;-73
2022/06/18 03:38:19;;;;;;;5.85;3.70;;;18.70;99.90;;;;;;5058319;28;20037;-72
2022/06/18 03:40:51;;;;;;;4.78;3.20;;;18.70;99.90;;;;;;5074635;28;20072;-73
2022/06/18 03:43:21;;;;;;;4.22;3.53;;;18.70;99.90;;;;;;5074953;28;20052;-73
2022/06/18 03:45:50;;;;;;;4.65;3.42;;;18.60;99.90;;;;;;5074647;28;20052;-73
2022/06/18 03:48:30;;;;;;;4.97;3.65;;;18.60;99.90;;;;;;5074664;28;20119;-73
2022/06/18 03:50:56;;;;;;;4.32;3.30;;;18.60;99.90;;;;;;5057066;28;20063;-73
2022/06/18 03:53:21;;;;;;;5.95;3.70;;;18.60;99.90;;;;;;5056699;28;20044;-74
2022/06/18 03:55:48;;;;;;;6.60;3.42;;;18.50;99.90;;;;;;5073518;28;20411;-73
2022/06/18 03:58:14;;;;;;;5.90;3.97;;;18.60;99.90;;;;;;5056758;28;20533;-73
2022/06/18 04:00:40;;;;;;;7.07;3.60;;;18.50;99.90;;;;;;5073479;28;20055;-73
2022/06/18 04:03:06;;;;;;;4.90;3.78;;;18.60;99.90;;;;;;5056033;28;20472;-73
2022/06/18 04:05:35;;;;;;;8.23;3.95;;;18.50;99.90;;;;;;5056337;28;20078;-73
2022/06/18 04:08:01;;;;;;;5.82;3.58;;;18.50;99.90;;;;;;5073173;28;20138;-73
2022/06/18 04:10:27;;;;;;;7.80;4.15;;;18.50;99.90;;;;;;5072911;28;20033;-73
2022/06/18 04:12:53;;;;;;;7.35;3.70;;;18.50;99.90;;;;;;5072867;28;20100;-73
2022/06/18 04:15:19;;;;;;;6.38;4.22;;;18.50;99.90;;;;;;5056779;28;20116;-73
2022/06/18 04:17:46;;;;;;;5.25;3.45;;;18.50;99.90;;;;;;5073158;28;20395;-73
2022/06/18 04:20:26;;;;;;;7.88;4.28;;;18.50;99.90;;;;;;5056477;28;20032;-73
2022/06/18 04:22:52;;;;;;;6.20;4.35;;;18.50;99.90;;;;;;5072845;28;20087;-73
2022/06/18 04:25:18;;;;;;;7.45;4.45;;;18.40;99.90;;;;;;5073017;28;20036;-73
2022/06/18 04:27:44;;;;;;;10.13;4.55;;;18.40;99.90;;;;;;5039660;28;20040;-73
2022/06/18 04:30:11;;;;;;;7.53;4.38;;;18.40;99.90;;;;;;5072774;28;20037;-73
2022/06/18 04:32:38;;;;;;;5.10;4.40;;;18.40;99.90;;;;;;5072952;28;20044;-74
2022/06/18 04:35:05;;;;;;;8.43;4.20;;;18.40;99.90;;;;;;5072679;28;20067;-74
2022/06/18 04:37:31;;;;;;;11.77;4.50;;;18.40;99.90;;;;;;5073118;28;20040;-73
2022/06/18 04:39:57;;;;;;;10.43;4.93;;;18.40;99.90;;;;;;5072975;28;20561;-74
2022/06/18 04:42:22;;;;;;;7.10;4.22;;;18.40;99.90;;;;;;5072753;28;20063;-73
2022/06/18 04:44:49;;;;;;;6.45;4.57;;;18.50;99.90;;;;;;5072706;28;20189;-73
2022/06/18 04:47:14;;;;;;;8.63;5.22;;;18.50;99.90;;;;;;5073079;28;20404;-73
2022/06/18 04:49:40;;;;;;;7.13;4.82;;;18.50;99.90;;;;;;5018140;28;1094854;-73
2022/06/18 04:52:06;;;;;;;8.32;5.05;;;18.50;99.90;;;;;;5076753;28;20037;-72
2022/06/18 04:54:32;;;;;;;8.68;5.45;;;18.50;99.90;;;;;;5059927;28;20044;-73
2022/06/18 04:56:58;;;;;;;7.68;5.22;;;18.50;99.90;;;;;;5060075;28;20451;-73
2022/06/18 04:59:24;;;;;;;7.97;5.05;;;18.50;99.90;;;;;;5076780;28;20122;-73
2022/06/18 05:02:21;;;;;;;8.27;5.53;;;18.60;99.90;;;;;;5060138;28;20075;-73
2022/06/18 05:04:47;;;;;;;7.32;4.65;;;18.60;99.90;;;;;;5056916;28;20492;-73
2022/06/18 05:07:12;;;;;;;8.45;5.57;;;18.60;99.90;;;;;;5076792;28;20050;-73
2022/06/18 05:09:38;;;;;;;7.82;5.00;;;18.60;99.90;;;;;;5076514;28;20122;-73
2022/06/18 05:12:04;;;;;;;8.73;4.82;;;18.60;99.90;;;;;;5076594;28;20415;-73
2022/06/18 05:14:31;;;;;;;7.47;4.68;;;18.70;99.90;;;;;;5058798;28;20044;-73
2022/06/18 05:16:57;;;;;;;8.68;5.32;;;18.70;99.90;;;;;;5076220;28;20149;-73
2022/06/18 05:19:26;;;;;;;7.00;4.70;;;18.70;99.90;;;;;;5076430;28;20377;-73
2022/06/18 05:21:52;;;;;;;5.90;4.40;;;18.80;99.90;;;;;;5076401;28;20043;-73
2022/06/18 05:24:18;;;;;;;6.72;4.78;;;18.80;99.90;;;;;;5075965;28;20067;-73
2022/06/18 05:26:47;;;;;;;8.82;5.53;;;18.90;99.90;;;;;;5042931;28;20044;-73
2022/06/18 05:29:15;;;;;;;10.80;5.40;;;18.90;99.90;;;;;;5076060;28;20123;-74
2022/06/18 05:31:41;;;;;;;7.90;5.25;;;18.90;99.90;;;;;;5076031;28;20423;-73
2022/06/18 05:34:07;;;;;;;8.82;5.35;;;18.90;99.90;;;;;;5075917;28;20125;-73
2022/06/18 05:36:33;;;;;;;9.38;4.93;;;19.10;99.90;;;;;;5075831;28;20127;-73
2022/06/18 05:38:59;;;;;;;11.30;5.45;;;19.10;99.90;;;;;;5075795;28;20376;-73
2022/06/18 05:41:26;;;;;;;12.40;6.57;;;19.10;99.90;;;;;;5076045;28;20044;-74
2022/06/18 05:43:51;;;;;;;7.78;4.75;;;19.10;99.90;;;;;;5075541;28;20050;-73
2022/06/18 05:46:17;;;;;;;8.07;5.80;;;19.20;99.90;;;;;;5059393;28;20044;-73
2022/06/18 05:48:43;;;;;;;10.68;5.20;;;19.20;99.90;;;;;;5042547;28;20050;-73
2022/06/18 05:51:09;;;;;;;10.55;4.97;;;19.30;99.90;;;;;;5058901;28;20047;-73
2022/06/18 05:53:35;;;;;;;9.23;5.07;;;19.40;99.90;;;;;;5075472;28;20048;-73
2022/06/18 05:56:01;;;;;;;8.07;5.05;;;19.50;99.90;;;;;;5059206;28;20071;-73
2022/06/18 05:58:28;;;;;;;8.82;5.10;;;19.50;99.90;;;;;;5058679;28;20059;-74
2022/06/18 06:00:53;;;;;;;7.88;5.18;;;19.60;99.90;;;;;;5058771;28;20067;-73
2022/06/18 06:03:19;;;;;;;9.02;5.82;;;19.70;99.90;;;;;;5075415;28;20039;-73
2022/06/18 06:05:45;;;;;;;7.43;5.25;;;19.70;99.90;;;;;;5075516;28;20066;-73
2022/06/18 06:08:12;;;;;;;9.02;5.65;;;19.70;99.90;;;;;;5075025;28;20036;-73
2022/06/18 06:13:22;;;;;;;8.35;5.20;;;19.90;99.90;;;;;;5075041;28;20113;-74
2022/06/18 06:15:49;;;;;;;7.75;4.63;;;20.00;99.90;;;;;;5058522;28;20491;-74
2022/06/18 06:18:16;;;;;;;7.03;5.25;;;20.10;99.90;;;;;;5058428;28;20402;-73
2022/06/18 06:20:45;;;;;;;8.80;5.00;;;20.10;99.90;;;;;;5058350;28;20051;-73
2022/06/18 06:23:11;;;;;;;9.65;4.65;;;20.20;99.90;;;;;;5058528;28;20032;-74
2022/06/18 06:25:38;;;;;;;10.32;5.03;;;20.30;99.90;;;;;;5058220;28;20062;-72
2022/06/18 06:28:05;;;;;;;9.95;4.47;;;20.30;99.90;;;;;;5074862;28;20043;-73
2022/06/18 06:30:31;;;;;;;7.45;4.60;;;20.30;99.90;;;;;;5058626;28;20036;-73
2022/06/18 06:32:56;;;;;;;10.55;4.68;;;20.50;99.90;;;;;;5041597;28;20044;-74
2022/06/18 06:35:22;;;;;;;10.00;4.88;;;20.60;99.90;;;;;;5074829;28;20400;-73
2022/06/18 06:37:48;;;;;;;6.35;3.70;;;20.70;99.90;;;;;;5058467;28;20151;-73
2022/06/18 06:40:14;;;;;;;5.18;4.03;;;20.80;99.90;;;;;;5074729;28;20040;-73
2022/06/18 06:42:46;;;;;;;7.13;4.85;;;20.80;99.90;;;;;;5074776;28;20036;-73
2022/06/18 06:45:15;;;;;;;10.02;3.70;;;20.90;99.90;;;;;;5074793;28;20415;-72
2022/06/18 06:47:40;;;;;;;11.18;4.45;;;20.90;99.90;;;;;;5058463;28;20475;-73
2022/06/18 06:50:07;;;;;;;8.57;4.45;;;21.00;99.90;;;;;;5057815;28;20064;-74
2022/06/18 06:52:32;;;;;;;5.25;4.20;;;21.00;99.90;;;;;;5041822;28;20052;-73
2022/06/18 06:57:43;;;;;;;6.88;3.67;;;21.10;99.90;;;;;;5046331;28;20070;-74
2022/06/18 07:00:11;;;;;;;5.03;3.22;;;21.40;99.90;;;;;;5058159;28;20079;-72
2022/06/18 07:02:36;;;;;;;6.88;3.60;;;21.40;99.90;;;;;;5074331;28;20036;-73
2022/06/18 07:05:02;;;;;;;8.38;3.67;;;21.40;99.90;;;;;;5074507;28;20458;-75
2022/06/18 07:07:30;;;;;;;4.07;2.72;;;21.50;99.90;;;;;;5074322;28;20439;-74
2022/06/18 07:09:56;;;;;;;8.90;3.45;;;21.70;99.90;;;;;;5074512;28;20046;-73
2022/06/18 07:12:22;;;;;;;4.93;3.45;;;21.80;99.90;;;;;;5074576;28;20395;-73
2022/06/18 07:14:47;;;;;;;4.88;2.70;;;21.90;99.90;;;;;;5040954;28;20040;-71
2022/06/18 07:17:17;;;;;;;4.22;3.03;;;22.00;99.90;;;;;;5074568;28;20059;-72
2022/06/18 07:19:43;;;;;;;4.60;3.00;;;22.10;99.90;;;;;;5074092;28;20100;-71
2022/06/18 07:22:10;;;;;;;5.53;3.20;;;22.10;99.90;;;;;;5040758;28;20047;-71
2022/06/18 07:24:37;;;;;;;3.28;2.75;;;22.20;99.90;;;;;;5074061;28;20044;-72
2022/06/18 07:27:04;;;;;;;4.10;2.65;;;22.40;99.90;;;;;;5057732;28;20035;-72
2022/06/18 07:29:30;;;;;;;5.28;2.70;;;22.50;99.90;;;;;;5074164;28;20156;-71
2022/06/18 07:32:08;;;;;;;4.25;2.70;;;22.60;99.90;;;;;;5057269;28;20043;-72
2022/06/18 07:34:34;;;;;;;5.88;3.10;;;22.60;99.90;;;;;;5057497;28;20048;-72
2022/06/18 07:36:59;;;;;;;4.20;2.55;;;22.70;99.90;;;;;;5074441;28;20174;-71
2022/06/18 07:39:25;;;;;;;4.43;2.85;;;22.80;99.90;;;;;;5061496;28;20400;-71
2022/06/18 07:41:53;;;;;;;3.47;1.95;;;23.00;99.90;;;;;;5061505;28;20040;-72
2022/06/18 07:44:19;;;;;;;3.97;2.28;;;23.10;99.90;;;;;;5077654;28;20040;-72
2022/06/18 07:46:48;;;;;;;4.38;2.47;;;23.00;99.90;;;;;;5077739;28;20036;-72
2022/06/18 07:49:15;;;;;;;3.28;2.17;;;23.00;99.90;;;;;;5061293;28;20093;-70
2022/06/18 07:51:41;;;;;;;3.47;2.22;;;23.00;99.90;;;;;;5060591;28;20059;-73
2022/06/18 07:54:07;;;;;;;4.45;2.50;;;23.00;99.90;;;;;;5077330;28;20048;-72
2022/06/18 07:56:33;;;;;;;3.20;1.85;;;23.10;99.90;;;;;;5077694;28;20039;-72
2022/06/18 07:58:59;;;;;;;4.15;2.00;;;23.20;99.90;;;;;;5060765;28;20085;-72
2022/06/18 08:01:24;;;;;;;1.90;1.52;;;23.30;99.90;;;;;;5077338;28;20122;-73
2022/06/18 08:03:50;;;;;;;4.15;2.08;;;23.30;99.90;;;;;;5077452;28;20090;-73
2022/06/18 08:06:16;;;;;;;2.90;2.20;;;23.40;99.90;;;;;;5060764;28;20036;-73
2022/06/18 08:08:42;;;;;;;4.53;2.22;;;23.50;99.90;;;;;;5060974;28;20098;-73
2022/06/18 08:11:12;;;;;;;5.22;2.53;;;23.60;99.90;;;;;;5077319;28;20075;-72
2022/06/18 08:13:38;;;;;;;;;;;23.70;99.90;;;;;;5060825;28;20044;-72
2022/06/18 08:16:04;;;;;;;4.28;2.25;;;23.70;99.90;;;;;;5094092;28;20264;-72
2022/06/18 08:18:30;;;;;;;4.07;2.30;;;23.80;99.90;;;;;;5060397;28;20123;-72
2022/06/18 08:21:11;;;;;;;3.35;2.25;;;23.90;99.90;;;;;;5077298;28;20040;-73
2022/06/18 08:23:37;;;;;;;5.25;2.78;;;23.80;99.90;;;;;;5060304;28;20086;-73
2022/06/18 08:26:05;;;;;;;4.20;2.13;;;23.80;99.90;;;;;;5043821;28;20044;-73
2022/06/18 08:28:32;;;;;;;4.90;2.30;;;23.80;99.90;;;;;;5076951;28;20044;-73
2022/06/18 08:31:00;;;;;;;4.35;2.00;;;23.90;99.90;;;;;;5060358;28;20080;-72
2022/06/18 08:33:25;;;;;;;3.80;2.00;;;23.90;99.90;;;;;;5076752;28;20044;-73
2022/06/18 08:35:51;;;;;;;3.90;2.22;;;24.00;99.90;;;;;;5076747;28;20040;-73
2022/06/18 08:38:17;;;;;;;5.10;1.77;;;24.00;99.90;;;;;;5043707;28;20145;-71
2022/06/18 08:40:45;;;;;;;2.92;1.90;;;24.00;99.90;;;;;;5060128;28;20068;-72
2022/06/18 08:43:47;;;;;;;4.50;2.20;;;24.20;99.90;;;;;;5060040;28;20040;-73
2022/06/18 08:46:25;;;;;;;2.70;1.80;;;24.20;99.90;;;;;;5059989;28;20039;-73
2022/06/18 08:49:07;;;;;;;5.07;1.90;;;24.20;99.90;;;;;;5075501;28;20118;-72
2022/06/18 08:51:57;;;;;;;3.03;1.55;;;24.20;99.90;;;;;;5059767;28;20127;-71
2022/06/18 08:54:55;;;;;;;2.83;1.65;;;24.20;99.90;;;;;;5059772;28;20066;-72
2022/06/18 08:57:58;;;;;;;4.30;2.10;;;24.20;99.90;;;;;;5022469;28;20380;-74
2022/06/18 09:00:53;;;;;;;6.32;2.20;;;24.20;99.90;;;;;;5071507;28;20052;-74
2022/06/18 09:03:25;;;;;;;3.20;1.88;;;24.20;99.90;;;;;;5076418;28;20074;-74
2022/06/18 09:05:57;;;;;;;4.95;2.10;;;24.40;99.90;;;;;;5059693;28;20032;-74
2022/06/18 09:08:33;;;;;;;2.17;1.55;;;24.50;99.90;;;;;;5059658;28;20040;-74
2022/06/18 09:11:01;;;;;;;4.20;1.67;;;24.60;99.90;;;;;;5076230;28;20142;-73
2022/06/18 09:13:38;;;;;;;3.95;1.63;;;24.40;99.90;;;;;;5076057;28;20083;-73
2022/06/18 09:16:09;;;;;;;2.15;1.30;;;24.20;99.90;;;;;;5076123;28;20116;-72
2022/06/18 09:18:37;;;;;;;;;;;24.10;99.90;;;;;;5076729;28;20142;-71
2022/06/18 09:21:15;;;;;;;6.50;1.67;;;24.10;99.90;;;;;;5110062;28;20323;-72
2022/06/18 09:23:48;;;;;;;1.98;1.25;;;24.20;99.90;;;;;;5075820;28;20051;-72
2022/06/18 09:26:20;;;;;;;2.65;1.50;;;24.10;99.90;;;;;;5059380;28;20050;-71
2022/06/18 09:28:55;;;;;;;4.60;1.35;;;24.10;99.90;;;;;;5059338;28;20040;-71
2022/06/18 09:31:50;;;;;;;3.13;1.20;;;24.30;99.90;;;;;;5075967;28;20075;-72
2022/06/18 09:34:24;;;;;;;4.18;1.40;;;24.30;99.90;;;;;;5059058;28;20348;-71
2022/06/18 09:36:56;;;;;;;1.80;1.23;;;24.50;99.90;;;;;;5075787;28;20466;-74
2022/06/18 09:39:31;;;;;;;2.15;1.10;;;24.40;99.90;;;;;;5075932;28;20414;-73
2022/06/18 09:42:22;;;;;;;3.25;1.65;;;24.50;99.90;;;;;;5059254;28;20451;-72
2022/06/18 09:44:54;;;;;;;4.43;1.40;;;24.60;99.90;;;;;;5075775;28;20048;-69
2022/06/18 09:47:29;;;;;;;2.03;1.10;;;24.70;99.90;;;;;;5075636;28;20048;-70
2022/06/18 09:49:55;;;;;;;2.22;1.35;;;24.80;99.90;;;;;;5058743;28;21245;-69
2022/06/18 09:52:39;;;;;;;3.60;1.42;;;25.20;99.90;;;;;;5093595;28;20059;-70
2022/06/18 09:55:16;;;;;;;5.47;1.60;;;25.10;99.90;;;;;;5075394;28;20044;-72
2022/06/18 09:57:47;;;;;;;3.70;1.75;;;25.30;99.90;;;;;;5059197;28;20109;-71
2022/06/18 10:00:17;;;;;;;2.83;1.60;;;25.20;99.90;;;;;;5058725;28;20044;-73
2022/06/18 10:02:57;;;;;;;3.83;1.77;;;25.20;99.90;;;;;;5058780;28;20036;-73
2022/06/18 10:08:32;;;;;;;0.98;0.80;;;25.20;99.90;;;;;;5075209;28;20054;-73
2022/06/18 10:11:07;;;;;;;1.95;0.93;;;25.00;99.90;;;;;;5075579;28;20046;-72
2022/06/18 10:13:58;;;;;;;4.82;1.17;;;25.00;99.90;;;;;;5058376;28;20043;-72
2022/06/18 10:17:03;;;;;;;2.13;1.13;;;25.00;99.90;;;;;;5061429;28;20078;-73
2022/06/18 10:20:01;;;;;;;1.73;1.00;;;25.20;99.90;;;;;;5024926;28;20050;-72
2022/06/18 10:22:57;;;;;;;1.27;0.82;;;25.10;99.90;;;;;;5075015;28;20051;-72
2022/06/18 10:25:43;;;;;;;1.33;0.77;;;24.90;99.90;;;;;;5075111;28;20048;-73
2022/06/18 10:28:34;;;;;;;1.10;0.88;;;24.90;99.90;;;;;;5075153;28;20080;-71
2022/06/18 10:31:14;;;;;;;;;;;24.70;99.90;;;;;;5058962;28;20126;-72
2022/06/18 10:34:02;;;;;;;;;;;24.70;99.90;;;;;;5058862;28;19965;-71
2022/06/18 10:36:37;;;;;;;1.38;0.90;;;24.70;99.90;;;;;;5075019;28;19916;-70
2022/06/18 10:39:24;;;;;;;1.35;0.82;;;24.90;99.90;;;;;;5058694;28;20070;-72
2022/06/18 10:42:23;;;;;;;1.48;0.88;;;24.80;99.90;;;;;;5075082;28;20039;-71
2022/06/18 10:45:13;;;;;;;1.92;1.00;;;24.70;99.90;;;;;;5057166;28;20115;-70
2022/06/18 10:47:43;;;;;;;1.80;1.00;;;24.70;99.90;;;;;;5074729;28;20083;-71
2022/06/18 10:50:11;;;;;;;;;;;24.70;99.90;;;;;;5075053;28;20040;-68
2022/06/18 10:52:37;;;;;;;1.55;1.00;;;24.60;99.90;;;;;;5074708;28;20276;-69
2022/06/18 10:55:18;;;;;;;1.52;0.80;;;24.70;99.90;;;;;;5074545;28;20052;-69
2022/06/18 10:57:44;;;;;;;2.28;1.00;;;24.90;99.90;;;;;;5074710;28;20055;-69
2022/06/18 11:00:11;;;;;;;1.45;0.65;;;24.90;99.90;;;;;;5074786;28;20407;-67
2022/06/18 11:02:39;;;;;;;1.98;1.23;;;25.10;99.90;;;;;;5057853;28;20043;-70
2022/06/18 11:05:30;;;;;;;1.38;0.80;;;25.00;99.90;;;;;;5074537;28;20403;-68
2022/06/18 11:08:00;;;;;;;1.40;0.90;;;25.10;99.90;;;;;;5074575;28;20043;-69
2022/06/18 11:10:51;;;;;;;3.30;1.15;;;25.10;99.90;;;;;;5074723;28;20040;-70
2022/06/18 11:13:22;;;;;;;1.65;0.77;;;25.10;99.90;;;;;;5077024;28;20453;-72
2022/06/18 11:15:47;;;;;;;2.95;0.70;;;25.10;99.90;;;;;;5062032;28;20036;-69
2022/06/18 11:18:22;;;;;;;1.75;0.68;;;25.10;99.90;;;;;;5061738;28;20040;-68
2022/06/18 11:21:12;;;;;;;1.98;0.90;;;25.00;99.90;;;;;;5061788;28;20148;-70
2022/06/18 11:23:44;;;;;;;1.27;0.70;;;25.10;99.90;;;;;;5078266;28;20100;-68
2022/06/18 11:26:16;;;;;;;0.75;0.55;;;25.20;99.90;;;;;;5062410;28;20047;-73
2022/06/18 11:28:48;;;;;;;1.42;0.60;;;25.10;99.90;;;;;;5078303;28;20616;-72
2022/06/18 11:31:31;;;;;;;1.67;0.60;;;25.10;99.90;;;;;;5078252;28;20044;-72
2022/06/18 11:34:18;;;;;;;0.50;0.45;;;25.20;99.90;;;;;;5077996;28;20044;-73
2022/06/18 11:36:54;;;;;;;1.65;0.68;;;25.20;99.90;;;;;;5078234;28;20048;-72
2022/06/18 11:39:35;;;;;;;2.67;0.63;;;25.30;99.90;;;;;;5077982;28;20049;-72
2022/06/18 11:42:08;;;;;;;0.55;0.52;;;25.40;99.90;;;;;;5078154;28;20532;-74
2022/06/18 11:44:52;;;;;;;4.50;0.73;;;25.50;99.90;;;;;;5078208;28;20048;-71
2022/06/18 11:47:32;;;;;;;0.90;0.52;;;25.50;99.90;;;;;;5078110;28;20054;-76
2022/06/18 11:50:07;;;;;;;0.93;0.60;;;25.70;99.90;;;;;;5077888;28;20063;-72
2022/06/18 11:52:46;;;;;;;0.98;0.60;;;25.90;99.90;;;;;;5077640;28;20056;-73
2022/06/18 11:55:31;;;;;;;1.15;0.70;;;26.10;99.90;;;;;;5077738;28;20075;-72
2022/06/18 11:58:03;;;;;;;2.65;0.70;;;26.30;99.90;;;;;;5077877;28;20078;-74
2022/06/18 12:01:07;;;;;;;1.48;0.50;;;26.20;99.90;;;;;;5077553;28;20033;-74
2022/06/18 12:03:47;;;;;;;3.45;1.13;;;26.20;99.90;;;;;;5077400;28;20074;-73
2022/06/18 12:06:34;;;;;;;1.27;0.77;;;26.00;99.90;;;;;;5077836;28;20099;-72
2022/06/18 12:09:00;;;;;;;1.00;0.70;;;25.80;99.90;;;;;;5077404;28;20524;-73
2022/06/18 12:11:49;;;;;;;1.30;0.60;;;25.70;99.90;;;;;;5060804;28;20075;-71
2022/06/18 12:14:26;;;;;;;1.15;0.80;;;25.60;99.90;;;;;;5077361;28;20043;-72
2022/06/18 12:17:02;;;;;;;0.60;0.50;;;25.50;99.90;;;;;;5060849;28;20036;-73
2022/06/18 12:19:47;;;;;;;1.38;0.60;;;25.40;99.90;;;;;;5060580;28;20043;-74
2022/06/18 12:22:12;;;;;;;1.52;0.52;;;25.50;99.90;;;;;;5060925;28;20122;-74
2022/06/18 12:24:40;;;;;;;0.82;0.57;;;25.70;99.90;;;;;;5077167;28;20127;-74
2022/06/18 12:27:25;;;;;;;3.20;0.40;;;25.80;99.90;;;;;;5077068;28;20043;-75
2022/06/18 12:30:21;;;;;;;0.80;0.68;;;25.80;99.90;;;;;;5077290;28;20147;-76
2022/06/18 12:33:01;;;;;;;0.52;0.50;;;25.80;99.90;;;;;;5060668;28;20044;-74
2022/06/18 12:35:52;;;;;;;0.63;0.38;;;25.90;99.90;;;;;;5060571;28;20044;-78
2022/06/18 12:38:35;;;;;;;1.60;0.40;;;26.00;99.90;;;;;;5076957;28;20242;-73
2022/06/18 12:41:19;;;;;;;1.25;0.52;;;26.20;99.90;;;;;;5077102;28;20048;-74
2022/06/18 12:43:58;;;;;;;2.30;0.70;;;26.20;99.90;;;;;;5076671;28;20130;-75
2022/06/18 12:46:43;;;;;;;0.38;0.30;;;26.10;99.90;;;;;;5076768;28;20047;-73
2022/06/18 12:49:18;;;;;;;0.93;0.55;;;;;;;;;;5095038;28;20036;-68
2022/06/18 12:51:51;;;;;;;1.48;0.52;;;26.20;99.90;;;;;;5076353;28;20056;-69
2022/06/18 12:54:29;;;;;;;0.40;0.30;;;26.30;99.90;;;;;;5076453;28;20048;-67
2022/06/18 12:57:09;;;;;;;0.43;0.43;;;26.50;99.90;;;;;;5076745;28;20032;-68
2022/06/18 13:00:03;;;;;;;0.65;0.52;;;26.50;99.90;;;;;;5076422;28;20086;-66
2022/06/18 13:02:44;;;;;;;1.38;0.60;;;26.60;99.90;;;;;;5059798;28;20032;-68
2022/06/18 13:05:17;;;;;;;4.22;0.65;;;26.50;99.90;;;;;;5076249;28;20044;-66
2022/06/18 13:08:14;;;;;;;3.47;0.70;;;26.40;99.90;;;;;;5059469;28;20054;-67
2022/06/18 13:11:02;;;;;;;3.10;0.70;;;26.40;99.90;;;;;;5075992;28;20046;-67
2022/06/18 13:13:50;;;;;;;0.77;0.40;;;26.40;99.90;;;;;;5076093;28;20079;-67
2022/06/18 13:16:24;;;;;;;1.90;0.80;;;26.30;99.90;;;;;;5059679;28;20460;-67
2022/06/18 13:19:16;;;;;;;0.85;0.40;;;26.30;99.90;;;;;;5059650;28;20043;-68
2022/06/18 13:21:44;;;;;;;1.23;0.77;;;26.30;99.90;;;;;;5063467;28;20197;-68
2022/06/18 13:30:06;;;;;;;1.52;0.40;;;26.20;99.90;;;;;;5075821;28;20457;-67
2022/06/18 13:32:45;;;;;;;4.05;0.52;;;26.10;99.90;;;;;;5094022;28;20181;-69
2022/06/18 13:35:13;;;;;;;0.77;0.40;;;25.80;99.90;;;;;;5058562;28;20040;-68